createdAt,value
2022-10-25T00:03:54.715Z,8.27
2022-10-25T00:09:02.115Z,9.13
2022-10-25T00:14:09.935Z,5.53
2022-10-25T00:19:14.843Z,4.27
2022-10-25T00:24:22.292Z,5.63
2022-10-25T00:29:27.255Z,7.63
2022-10-25T00:34:32.139Z,7.67
2022-10-25T00:39:39.524Z,6.97
2022-10-25T00:44:55.908Z,7.57
2022-10-25T00:50:06.465Z,6.43
2022-10-25T00:55:17.154Z,7.03
2022-10-25T01:00:22.581Z,6.63
2022-10-25T01:05:27.331Z,7.37
2022-10-25T01:10:35.102Z,6.97
2022-10-25T01:15:49.265Z,5.80
2022-10-25T01:21:42.676Z,4.40
2022-10-25T01:27:12.991Z,7.47
2022-10-25T01:32:25.213Z,9.00
2022-10-25T01:37:37.878Z,4.43
2022-10-25T01:42:52.003Z,6.80
2022-10-25T01:48:05.699Z,8.30
2022-10-25T01:53:10.580Z,4.80
2022-10-25T01:58:28.194Z,6.87
2022-10-25T02:03:42.806Z,12.07
2022-10-25T02:08:51.021Z,5.10
2022-10-25T02:14:04.948Z,8.03
2022-10-25T02:19:15.821Z,9.60
2022-10-25T02:24:24.514Z,4.07
2022-10-25T02:29:32.501Z,5.53
2022-10-25T02:34:40.001Z,5.70
2022-10-25T02:39:45.207Z,8.10
2022-10-25T02:44:49.906Z,5.60
2022-10-25T02:49:57.273Z,6.07
2022-10-25T02:55:02.344Z,4.67
2022-10-25T03:00:08.941Z,4.83
2022-10-25T03:05:16.317Z,6.57
2022-10-25T03:10:21.388Z,6.37
2022-10-25T03:15:26.362Z,7.83
2022-10-25T03:20:34.236Z,6.77
2022-10-25T03:25:39.373Z,5.93
2022-10-25T03:30:45.635Z,6.73
2022-10-25T03:35:55.606Z,6.30
2022-10-25T03:41:00.394Z,5.90
2022-10-25T03:46:05.259Z,7.27
2022-10-25T03:51:12.605Z,7.00
2022-10-25T03:56:17.877Z,5.10
2022-10-25T04:01:23.152Z,5.70
2022-10-25T04:06:30.911Z,4.23
2022-10-25T04:11:35.835Z,4.10
2022-10-25T04:16:41.325Z,4.93
2022-10-25T04:21:49.018Z,5.87
2022-10-25T04:26:55.112Z,4.23
2022-10-25T04:31:59.982Z,5.17
2022-10-25T04:37:07.876Z,6.03
2022-10-25T04:42:13.241Z,5.53
2022-10-25T04:47:20.506Z,4.43
2022-10-25T04:52:28.004Z,2.90
2022-10-25T04:57:34.361Z,3.47
2022-10-25T05:02:39.221Z,6.73
2022-10-25T05:07:49.449Z,8.00
2022-10-25T05:12:56.918Z,4.33
2022-10-25T05:18:02.280Z,7.17
2022-10-25T05:23:11.718Z,4.30
2022-10-25T05:28:17.117Z,5.80
2022-10-25T05:33:22.029Z,13.03
2022-10-25T05:38:32.024Z,10.17
2022-10-25T05:43:39.972Z,6.53
2022-10-25T05:48:48.943Z,17.07
2022-10-25T05:53:59.026Z,13.87
2022-10-25T05:59:10.440Z,13.60
2022-10-25T06:04:16.092Z,14.63
2022-10-25T06:09:25.715Z,7.50
2022-10-25T06:14:30.446Z,16.70
2022-10-25T06:19:35.433Z,18.13
2022-10-25T06:24:42.959Z,12.43
2022-10-25T06:29:47.972Z,22.63
2022-10-25T06:34:53.092Z,11.73
2022-10-25T06:40:00.429Z,9.83
2022-10-25T06:45:05.343Z,8.47
2022-10-25T06:50:11.669Z,10.80
2022-10-25T06:55:22.324Z,13.97
2022-10-25T07:00:27.104Z,14.07
2022-10-25T07:05:32.059Z,8.93
2022-10-25T07:10:41.727Z,5.73
2022-10-25T07:15:46.642Z,10.63
2022-10-25T07:20:53.904Z,11.60
2022-10-25T07:26:02.130Z,10.07
2022-10-25T07:31:07.121Z,5.80
2022-10-25T07:36:12.469Z,7.83
2022-10-25T07:41:20.351Z,9.87
2022-10-25T07:46:26.321Z,3.80
2022-10-25T07:51:39.547Z,6.00
2022-10-25T07:56:46.971Z,10.10
2022-10-25T08:01:54.060Z,4.23
2022-10-25T08:07:02.090Z,7.20
2022-10-25T08:12:09.992Z,6.13
2022-10-25T08:17:16.595Z,8.80
2022-10-25T08:22:21.421Z,9.80
2022-10-25T08:27:29.044Z,6.93
2022-10-25T08:32:35.778Z,8.33
2022-10-25T08:37:40.788Z,6.33
2022-10-25T08:43:02.700Z,7.50
2022-10-25T08:48:14.550Z,10.43
2022-10-25T08:53:25.488Z,6.70
2022-10-25T08:58:47.047Z,3.97
2022-10-25T09:03:54.816Z,6.63
2022-10-25T09:09:13.657Z,2.67
2022-10-25T09:14:35.044Z,2.63
2022-10-25T09:19:47.777Z,3.67
2022-10-25T09:25:00.882Z,4.57
2022-10-25T09:30:11.535Z,10.07
2022-10-25T09:35:22.492Z,5.17
2022-10-25T09:40:32.734Z,7.00
2022-10-25T09:45:48.742Z,6.20
2022-10-25T09:50:59.782Z,5.77
2022-10-25T09:56:07.783Z,9.97
2022-10-25T10:01:19.736Z,9.37
2022-10-25T10:06:28.402Z,9.23
2022-10-25T10:11:35.155Z,7.67
2022-10-25T10:16:46.976Z,3.87
2022-10-25T10:21:54.513Z,8.87
2022-10-25T10:27:02.247Z,3.27
2022-10-25T10:32:27.163Z,6.27
2022-10-25T10:37:33.792Z,7.97
2022-10-25T10:42:41.442Z,4.57
2022-10-25T10:47:59.718Z,8.23
2022-10-25T10:53:11.063Z,7.33
2022-10-25T10:58:19.233Z,2.57
2022-10-25T11:03:59.151Z,6.67
2022-10-25T11:09:20.498Z,4.83
2022-10-25T11:14:27.614Z,7.93
2022-10-25T11:19:50.135Z,7.70
2022-10-25T11:25:10.016Z,5.73
2022-10-25T11:30:19.297Z,5.90
2022-10-25T11:35:41.212Z,4.63
2022-10-25T11:40:51.565Z,5.10
2022-10-25T11:46:02.474Z,6.03
2022-10-25T11:51:21.235Z,2.43
2022-10-25T11:56:41.187Z,4.37
2022-10-25T12:02:00.483Z,7.17
2022-10-25T12:07:16.186Z,4.93
2022-10-25T12:12:25.298Z,3.73
2022-10-25T12:17:33.219Z,5.87
2022-10-25T12:22:46.777Z,2.67
2022-10-25T12:27:57.521Z,1.77
2022-10-25T12:33:09.758Z,5.07
2022-10-25T12:38:25.143Z,6.87
2022-10-25T12:43:38.071Z,5.03
2022-10-25T12:49:16.807Z,3.77
2022-10-25T12:54:50.798Z,2.13
2022-10-25T13:00:07.275Z,3.33
2022-10-25T13:05:35.317Z,3.53
2022-10-25T13:10:46.728Z,3.90
2022-10-25T13:15:53.814Z,2.57
2022-10-25T13:20:58.832Z,2.73
2022-10-25T13:26:12.228Z,5.07
2022-10-25T13:31:46.666Z,2.87
2022-10-25T13:36:52.811Z,6.87
2022-10-25T13:42:05.378Z,4.00
2022-10-25T13:47:36.715Z,4.27
2022-10-25T13:52:48.558Z,4.27
2022-10-25T13:57:58.478Z,3.73
2022-10-25T14:03:25.918Z,5.10
2022-10-25T14:08:34.426Z,5.87
2022-10-25T14:13:51.331Z,3.30
2022-10-25T14:18:58.265Z,4.43
2022-10-25T14:24:10.358Z,3.50
2022-10-25T14:29:26.663Z,2.50
2022-10-25T14:34:32.505Z,3.80
2022-10-25T14:39:37.301Z,4.07
2022-10-25T14:44:52.299Z,6.77
2022-10-25T14:49:57.510Z,8.07
2022-10-25T14:55:07.305Z,6.30
2022-10-25T15:00:23.915Z,3.00
2022-10-25T15:05:28.915Z,5.57
2022-10-25T15:10:45.978Z,7.37
2022-10-25T15:15:54.380Z,2.77
2022-10-25T15:21:12.205Z,4.47
2022-10-25T15:26:28.011Z,3.50
2022-10-25T15:31:35.684Z,4.50
2022-10-25T15:36:42.299Z,3.73
2022-10-25T15:41:47.239Z,3.83
2022-10-25T15:46:54.811Z,4.43
2022-10-25T15:52:02.008Z,10.00
2022-10-25T15:57:07.337Z,8.43
2022-10-25T16:02:21.857Z,8.30
2022-10-25T16:07:27.776Z,5.70
2022-10-25T16:12:37.749Z,8.23
2022-10-25T16:17:47.967Z,4.53
2022-10-25T16:22:54.742Z,5.30
2022-10-25T16:27:59.563Z,6.17
2022-10-25T16:33:06.970Z,6.00
2022-10-25T16:38:12.158Z,6.50
2022-10-25T16:43:17.952Z,4.27
2022-10-25T16:48:26.468Z,6.93
2022-10-25T16:53:31.980Z,10.73
2022-10-25T16:58:37.018Z,11.87
2022-10-25T17:03:44.678Z,4.17
2022-10-25T17:08:50.328Z,8.03
2022-10-25T17:13:55.083Z,5.70
2022-10-25T17:19:03.318Z,5.10
2022-10-25T17:24:10.833Z,7.73
2022-10-25T17:29:15.613Z,7.33
2022-10-25T17:34:22.999Z,9.90
2022-10-25T17:39:28.096Z,11.57
2022-10-25T17:44:33.181Z,11.57
2022-10-25T17:49:40.689Z,8.53
2022-10-25T17:54:45.615Z,6.37
2022-10-25T17:59:50.544Z,7.03
2022-10-25T18:10:24.185Z,6.90
2022-10-25T18:15:29.950Z,5.93
2022-10-25T18:20:40.600Z,11.03
2022-10-25T18:25:53.601Z,8.47
2022-10-25T18:31:01.910Z,6.10
2022-10-25T18:36:15.054Z,10.90
2022-10-25T18:41:22.140Z,8.17
2022-10-25T18:46:32.053Z,8.50
2022-10-25T18:51:40.717Z,8.13
2022-10-25T18:56:48.675Z,17.27
2022-10-25T19:01:53.841Z,13.37
2022-10-25T19:07:04.292Z,18.00
2022-10-25T19:12:09.379Z,9.20
2022-10-25T19:17:14.293Z,16.47
2022-10-25T19:22:21.982Z,28.90
2022-10-25T19:27:29.071Z,25.60
2022-10-25T19:32:36.572Z,21.87
2022-10-25T19:37:44.757Z,20.10
2022-10-25T19:42:50.434Z,15.80
2022-10-25T19:47:57.148Z,15.53
2022-10-25T19:53:04.930Z,13.53
2022-10-25T19:58:10.546Z,11.73
2022-10-25T20:03:15.826Z,12.20
2022-10-25T20:08:23.936Z,10.77
2022-10-25T20:13:28.877Z,7.77
2022-10-25T20:18:35.956Z,13.20
2022-10-25T20:23:49.391Z,9.20
2022-10-25T20:28:55.792Z,11.87
2022-10-25T20:34:01.673Z,10.20
2022-10-25T20:39:09.192Z,10.13
2022-10-25T20:44:14.834Z,9.43
2022-10-25T20:49:19.753Z,11.77
2022-10-25T20:54:29.428Z,10.47
2022-10-25T20:59:34.409Z,13.53
2022-10-25T21:04:53.020Z,10.23
2022-10-25T21:10:01.469Z,11.87
2022-10-25T21:15:11.854Z,9.33
2022-10-25T21:20:17.600Z,11.13
2022-10-25T21:25:25.643Z,8.97
2022-10-25T21:30:30.538Z,12.73
2022-10-25T21:35:35.534Z,12.30
2022-10-25T21:40:43.311Z,13.90
2022-10-25T21:45:48.075Z,8.93
2022-10-25T21:50:58.625Z,12.73
2022-10-25T21:56:13.221Z,11.60
2022-10-25T22:01:19.843Z,11.67
2022-10-25T22:06:27.798Z,8.67
2022-10-25T22:11:37.476Z,12.20
2022-10-25T22:16:42.836Z,10.67
2022-10-25T22:21:48.002Z,8.63
2022-10-25T22:26:56.267Z,7.63
2022-10-25T22:32:01.096Z,10.47
2022-10-25T22:37:05.885Z,9.03
2022-10-25T22:42:14.121Z,9.53
2022-10-25T22:47:18.954Z,7.47
2022-10-25T22:52:23.976Z,12.57
2022-10-25T22:57:32.747Z,11.50
2022-10-25T23:02:37.489Z,10.70
2022-10-25T23:07:42.352Z,9.10
2022-10-25T23:12:51.952Z,6.80
2022-10-25T23:17:56.676Z,7.80
2022-10-25T23:23:01.380Z,8.53
2022-10-25T23:28:09.027Z,8.87
2022-10-25T23:33:15.523Z,8.03
2022-10-25T23:38:20.402Z,8.97
2022-10-25T23:43:27.796Z,6.80
2022-10-25T23:48:33.025Z,7.30
2022-10-25T23:53:38.204Z,5.40
2022-10-25T23:58:45.773Z,6.63
